Time;durP1;ratioP1;P1;durP2;ratioP2;P2;SDS_P1;SDS_P2;PMS_P1;PMS_P2;Temp;Humidity;BMP_temperature;BMP_pressure;BME280_temperature;BME280_humidity;BME280_pressure;Samples;Min_cycle;Max_cycle;Signal;HPM_P1;HPM_P2
2022/03/02 00:07:43;;;;;;;53.17;27.27;;;;;;;-4.50;100.00;101797.91;15189630;19;2926166;-51
2022/03/02 00:12:48;;;;;;;49.00;25.47;;;;;;;-4.57;100.00;101798.63;15324801;19;20148;-52
2022/03/02 01:02:31;;;;;;;32.83;18.07;;;;;;;-4.86;100.00;101767.66;15324824;19;20478;-50
2022/03/02 01:56:59;;;;;;;31.73;17.70;;;;;;;-5.55;100.00;101714.88;15345502;19;20473;-50
2022/03/02 02:21:56;;;;;;;36.90;20.37;;;;;;;-5.14;100.00;101697.63;15345538;19;20505;-50
2022/03/02 02:31:59;;;;;;;33.97;18.30;;;;;;;-5.38;100.00;101677.16;15324319;19;20510;-50
2022/03/02 03:51:12;;;;;;;42.23;21.57;;;;;;;-5.75;100.00;101636.44;15336955;19;20493;-50
2022/03/02 06:15:04;;;;;;;36.63;18.80;;;;;;;-4.88;100.00;101587.09;15192555;19;2926394;-49
2022/03/02 07:34:24;;;;;;;26.10;16.27;;;;;;;-1.51;100.00;101573.72;15332871;19;20473;-52
2022/03/02 07:44:24;;;;;;;28.60;17.33;;;;;;;-1.05;100.00;101573.88;15194309;19;2938491;-52
2022/03/02 07:49:33;;;;;;;30.20;18.03;;;;;;;-0.79;100.00;101566.97;15338203;19;20139;-52
2022/03/02 07:54:40;;;;;;;26.10;16.70;;;;;;;-0.59;100.00;101569.63;15325763;19;20147;-51
2022/03/02 08:19:37;;;;;;;32.40;19.37;;;;;;;0.39;100.00;101544.19;15334771;19;20478;-51
2022/03/02 08:34:35;;;;;;;27.50;17.27;;;;;;;1.05;100.00;101537.75;15332817;19;20485;-51
2022/03/02 08:39:40;;;;;;;32.60;18.97;;;;;;;1.34;100.00;101532.28;15328542;19;20160;-51
2022/03/02 08:49:39;;;;;;;24.93;16.00;;;;;;;1.90;100.00;101509.91;15194088;19;2940795;-51
2022/03/02 08:59:41;;;;;;;26.67;16.58;;;;;;;2.27;100.00;101506.00;15167896;19;2971665;-51
2022/03/02 09:04:46;;;;;;;30.93;20.00;;;;;;;2.47;100.00;101508.41;15337930;19;20176;-51
2022/03/02 09:09:51;;;;;;;25.73;16.83;;;;;;;2.70;100.00;101494.94;15349334;19;20163;-51
2022/03/02 09:14:57;;;;;;;23.20;15.23;;;;;;;2.96;100.00;101486.69;15347962;19;20584;-50
2022/03/02 09:20:02;;;;;;;21.63;14.67;;;;;;;3.23;100.00;101491.53;15331897;19;20564;-52
2022/03/02 09:25:08;;;;;;;24.00;15.40;;;;;;;3.54;100.00;101490.16;15328040;19;20801;-53
2022/03/02 09:30:13;;;;;;;21.37;15.40;;;;;;;3.78;100.00;101486.22;15347964;19;20484;-53
2022/03/02 10:19:57;;;;;;;13.40;9.03;;;;;;;5.17;100.00;101431.31;15345557;19;20458;-52
2022/03/02 10:25:08;;;;;;;11.47;8.53;;;;;;;5.20;100.00;101433.00;15348794;19;20144;-52
2022/03/02 10:45:19;;;;;;;14.57;9.33;;;;;;;5.47;100.00;101404.97;15344546;19;20526;-51
2022/03/02 10:55:23;;;;;;;11.60;7.83;;;;;;;5.56;100.00;101395.00;15326413;19;20681;-51
2022/03/02 11:00:28;;;;;;;8.00;6.37;;;;;;;5.68;100.00;101383.22;15348671;19;20148;-52
2022/03/02 11:15:29;;;;;;;10.13;7.27;;;;;;;5.88;100.00;101359.75;15317334;19;21152;-52
2022/03/02 11:20:34;;;;;;;9.20;6.53;;;;;;;6.00;100.00;101359.38;15342476;19;20237;-52
2022/03/02 11:45:26;;;;;;;7.60;6.07;;;;;;;6.33;96.46;101332.78;15345104;19;20675;-51
2022/03/02 11:55:29;;;;;;;8.07;6.10;;;;;;;6.47;95.47;101322.63;15340625;19;20538;-52
2022/03/02 12:00:34;;;;;;;9.33;7.27;;;;;;;6.50;91.03;101320.75;15325532;19;20200;-51
2022/03/02 12:05:39;;;;;;;8.87;6.47;;;;;;;6.43;92.76;101310.38;15341772;19;20473;-53
2022/03/02 12:10:46;;;;;;;8.80;6.40;;;;;;;6.46;93.61;101299.69;15348186;19;20173;-51
2022/03/02 12:15:55;;;;;;;7.73;6.50;;;;;;;6.47;94.89;101293.47;15347077;19;20159;-52
2022/03/02 12:21:00;;;;;;;6.67;5.73;;;;;;;6.40;92.14;101289.28;15325079;19;20323;-55
2022/03/02 12:26:05;;;;;;;8.27;6.10;;;;;;;6.39;89.39;101287.56;15332768;19;20195;-52
2022/03/02 12:31:16;;;;;;;6.57;5.43;;;;;;;6.43;88.83;101273.25;15346247;19;20142;-52
2022/03/02 12:41:24;;;;;;;9.17;6.83;;;;;;;6.42;90.32;101268.88;15334411;19;20943;-52
2022/03/02 12:51:31;;;;;;;7.47;6.23;;;;;;;6.37;94.79;101239.00;15341309;19;20493;-52
2022/03/02 12:56:37;;;;;;;9.00;6.30;;;;;;;6.47;96.93;101233.34;15348190;19;20606;-53
2022/03/02 13:06:40;;;;;;;8.50;6.57;;;;;;;6.39;92.16;101224.78;15170151;19;2936140;-53
2022/03/02 13:11:44;;;;;;;10.30;6.50;;;;;;;6.37;84.60;101209.84;15336143;19;20155;-51
2022/03/02 13:32:06;;;;;;;7.77;6.80;;;;;;;6.17;87.46;101201.66;15320136;19;20536;-52
2022/03/02 13:51:58;;;;;;;11.13;7.93;;;;;;;5.95;89.91;101181.13;15166947;19;2947993;-53
2022/03/02 13:57:05;;;;;;;9.90;7.37;;;;;;;5.78;85.06;101173.72;15339034;19;20635;-51
2022/03/02 14:02:10;;;;;;;9.27;7.03;;;;;;;5.87;84.48;101172.53;15349276;19;20158;-51
2022/03/02 14:17:12;;;;;;;9.47;6.87;;;;;;;5.82;79.88;101169.16;15322407;19;20506;-51
2022/03/02 14:27:25;;;;;;;10.13;7.13;;;;;;;5.63;77.20;101171.53;15191574;19;2968482;-51
2022/03/02 14:32:40;;;;;;;12.80;8.37;;;;;;;5.60;79.33;101157.50;15346167;19;20821;-52
2022/03/02 14:37:47;;;;;;;9.70;7.20;;;;;;;5.59;79.84;101158.41;15323653;19;20137;-52
2022/03/02 14:42:58;;;;;;;10.53;7.97;;;;;;;5.47;78.74;101162.28;15340534;19;20153;-52
2022/03/02 14:53:21;;;;;;;9.90;8.10;;;;;;;5.38;78.71;101147.56;15341467;19;20520;-51
2022/03/02 15:03:26;;;;;;;9.10;7.33;;;;;;;5.38;90.65;101139.63;15323721;19;21007;-52
2022/03/02 15:08:45;;;;;;;9.20;7.60;;;;;;;5.24;88.37;101133.00;15285763;19;20675;-51
2022/03/02 15:24:06;;;;;;;15.37;10.27;;;;;;;4.84;98.08;101136.78;15222828;19;21143;-52
2022/03/02 15:29:14;;;;;;;12.57;8.97;;;;;;;4.61;100.00;101129.47;15264467;19;20982;-54
2022/03/02 15:39:49;;;;;;;14.98;10.38;;;;;;;4.29;100.00;101121.53;15107145;19;2992092;-51
2022/03/02 15:45:08;;;;;;;18.93;11.47;;;;;;;4.06;100.00;101121.25;15241286;19;20148;-53
2022/03/02 15:50:16;;;;;;;19.13;12.93;;;;;;;3.79;100.00;101107.78;15295381;19;20147;-53
2022/03/02 15:55:23;;;;;;;26.73;14.70;;;;;;;3.48;100.00;101112.06;15335974;19;20487;-52
2022/03/02 16:10:23;;;;;;;60.60;32.03;;;;;;;2.78;100.00;101097.72;15319764;19;20505;-50
2022/03/02 16:30:20;;;;;;;41.57;23.97;;;;;;;1.96;100.00;101086.06;15230218;19;20497;-55
2022/03/02 16:50:12;;;;;;;49.90;27.07;;;;;;;1.16;100.00;101072.41;15320895;19;20490;-51
2022/03/02 17:35:30;;;;;;;47.77;27.10;;;;;;;0.20;100.00;101050.81;15310206;19;20809;-51
2022/03/02 17:55:25;;;;;;;30.67;18.20;;;;;;;-0.14;100.00;101033.66;15324972;19;20513;-51
2022/03/02 18:45:09;;;;;;;64.50;34.23;;;;;;;-0.44;100.00;101017.28;15281677;19;20788;-50
2022/03/02 18:50:15;;;;;;;58.23;32.70;;;;;;;-0.36;100.00;101023.31;15306366;19;20286;-50
2022/03/02 19:00:15;;;;;;;58.78;28.20;;;;;;;-0.42;100.00;101027.75;15148360;19;3037616;-53
2022/03/02 19:15:14;;;;;;;24.87;15.50;;;;;;;-0.60;100.00;101018.28;15309946;19;21006;-51
2022/03/02 19:35:09;;;;;;;24.93;17.60;;;;;;;-0.95;100.00;100999.31;15306225;19;20497;-52
2022/03/02 19:50:07;;;;;;;29.30;18.80;;;;;;;-1.56;100.00;101002.25;15138169;19;2992500;-51
2022/03/02 21:39:29;;;;;;;37.80;21.67;;;;;;;-2.79;100.00;100925.00;15310619;19;21290;-51
2022/03/02 22:14:42;;;;;;;34.95;20.67;;;;;;;-3.11;100.00;100911.06;15167359;19;2938472;-51
2022/03/02 23:19:13;;;;;;;39.43;23.57;;;;;;;-3.41;100.00;100876.25;15337213;19;20474;-51
